Flight Number: EUR1191 Duration: 3:00
Departure: Athens Int'l (LGAV) at 07:00 Distance: 1138 Nm
Arrival: Paris Charles-de-Gaulle (LFPG) at 10:00 Equipment: A330-200

Weather Information
Athens Eleftherios Venizelos International Airport, Greece (LGAV) 37-56N 023-56E Nov 19, 2018 - 05:20 PM EST / 2018.11.19 2220 UTC
Wind: Calm:0
Visibility: 5 mile(s):0
Sky conditions: partly cloudy Temperature: 53 F (12 C) Dew Point: 51 F (11 C) Relative Humidity: 93% Pressure (altimeter): 30.06 in. Hg (1018 hPa)
ob: LGAV 192220Z 00000KT 9000 SCT007 SCT030 12/11 Q1018 NOSIG cycle: 22
Sunrise: 05:12 Sunset: 15:06 (UTC)

Paris-Aeroport Charles De Gaulle, France (LFPG) 49-01N 002-32E 109M Nov 19, 2018 - 05:30 PM EST / 2018.11.19 2230 UTC
Wind: from the NE (040 degrees) at 14 MPH (12 KT):0
Visibility: greater than 7 mile(s):0
Sky conditions: mostly cloudy Temperature: 39 F (4 C) Dew Point: 32 F (0 C) Relative Humidity: 75% Pressure (altimeter): 29.74 in. Hg (1007 hPa)
ob: LFPG 192230Z 04012KT 9999 SCT043 BKN073 04/M00 Q1007 NOSIG cycle: 22
Sunrise: 07:10 Sunset: 16:00 (UTC)

TAF:2018/11/19 18:21 TAF LFPG 191700Z 1918/2024 03010KT 9999 SCT040 BKN070 TX04/1918Z TNM00/2024Z TEMPO 1918/1924 04015G25KT BECMG 1920/1922 BKN012 TEMPO 1922/2018 4000 -SN BKN007 PROB40 2000/2018 1200 -SN BKN004 BECMG 2018/2021 3000 BR BKN003 PROB30 2021/2024 0800 FG OVC001

Previous Pireps for this route
Date Aircraft Flight time Fuel used Landing rate On time
2013-10-25A330-2003.00263100No
2016-10-24A330-20003.1439805-150No
(pireps marked green are flown by you)

Route map